createdAt,value
2023-05-19T00:00:13.597Z,8.85
2023-05-19T00:01:13.536Z,8.83
2023-05-19T00:02:13.560Z,8.79
2023-05-19T00:03:13.800Z,8.78
2023-05-19T00:04:13.519Z,8.71
2023-05-19T00:05:13.530Z,8.65
2023-05-19T00:06:13.515Z,8.63
2023-05-19T00:07:13.471Z,8.57
2023-05-19T00:08:13.470Z,8.55
2023-05-19T00:09:13.465Z,8.50
2023-05-19T00:10:13.476Z,8.46
2023-05-19T00:11:13.429Z,8.49
2023-05-19T00:12:13.451Z,8.50
2023-05-19T00:13:14.365Z,8.47
2023-05-19T00:14:13.411Z,8.52
2023-05-19T00:15:13.411Z,8.52
2023-05-19T00:16:13.463Z,8.52
2023-05-19T00:17:13.395Z,8.49
2023-05-19T00:18:13.479Z,8.49
2023-05-19T00:19:13.437Z,8.43
2023-05-19T00:20:13.355Z,8.39
2023-05-19T00:21:13.327Z,8.32
2023-05-19T00:22:13.337Z,8.28
2023-05-19T00:23:13.338Z,8.22
2023-05-19T00:24:14.328Z,8.20
2023-05-19T00:25:13.296Z,8.21
2023-05-19T00:26:13.293Z,8.18
2023-05-19T00:27:13.284Z,8.17
2023-05-19T00:28:13.274Z,8.17
2023-05-19T00:29:13.279Z,8.14
2023-05-19T00:30:13.260Z,8.10
2023-05-19T00:31:13.225Z,8.10
2023-05-19T00:32:13.410Z,8.17
2023-05-19T00:33:13.228Z,8.17
2023-05-19T00:34:13.199Z,8.18
2023-05-19T00:35:13.214Z,8.17
2023-05-19T00:36:13.187Z,8.14
2023-05-19T00:37:13.222Z,8.13
2023-05-19T00:38:13.163Z,8.09
2023-05-19T00:39:13.164Z,8.04
2023-05-19T00:40:13.145Z,8.02
2023-05-19T00:41:13.142Z,7.94
2023-05-19T00:42:13.137Z,7.91
2023-05-19T00:43:13.108Z,7.89
2023-05-19T00:44:13.093Z,7.86
2023-05-19T00:45:13.073Z,7.85
2023-05-19T00:46:13.165Z,7.84
2023-05-19T00:47:13.074Z,7.88
2023-05-19T00:48:13.079Z,7.85
2023-05-19T00:49:13.044Z,7.84
2023-05-19T00:50:13.037Z,7.84
2023-05-19T00:51:13.043Z,7.82
2023-05-19T00:52:13.014Z,7.76
2023-05-19T00:53:12.997Z,7.77
2023-05-19T00:54:12.996Z,7.77
2023-05-19T00:55:12.978Z,7.77
2023-05-19T00:56:13.001Z,7.73
2023-05-19T00:57:12.955Z,7.69
2023-05-19T00:58:12.964Z,7.69
2023-05-19T00:59:12.934Z,7.67
2023-05-19T01:00:12.935Z,7.62
2023-05-19T01:01:12.993Z,7.62
2023-05-19T01:02:12.911Z,7.57
2023-05-19T01:03:13.033Z,7.57
2023-05-19T01:04:12.891Z,7.52
2023-05-19T01:05:12.896Z,7.54
2023-05-19T01:06:13.460Z,7.55
2023-05-19T01:07:12.872Z,7.52
2023-05-19T01:08:12.871Z,7.50
2023-05-19T01:09:12.837Z,7.47
2023-05-19T01:10:12.868Z,7.44
2023-05-19T01:11:12.817Z,7.39
2023-05-19T01:12:12.824Z,7.39
2023-05-19T01:13:12.796Z,7.36
2023-05-19T01:14:12.793Z,7.34
2023-05-19T01:15:12.782Z,7.34
2023-05-19T01:16:12.917Z,7.33
2023-05-19T01:17:12.763Z,7.29
2023-05-19T01:18:12.773Z,7.29
2023-05-19T01:19:12.797Z,7.24
2023-05-19T01:20:12.755Z,7.26
2023-05-19T01:21:12.728Z,7.24
2023-05-19T01:22:12.733Z,7.23
2023-05-19T01:23:12.681Z,7.19
2023-05-19T01:24:12.687Z,7.16
2023-05-19T01:25:12.839Z,7.16
2023-05-19T01:26:12.684Z,7.15
2023-05-19T01:27:12.637Z,7.08
2023-05-19T01:28:12.630Z,7.01
2023-05-19T01:29:12.634Z,7.00
2023-05-19T01:30:12.659Z,6.99
2023-05-19T01:31:12.620Z,6.97
2023-05-19T01:32:12.640Z,6.99
2023-05-19T01:33:12.583Z,7.00
2023-05-19T01:34:12.605Z,6.99
2023-05-19T01:35:12.560Z,6.96
2023-05-19T01:36:12.579Z,6.90
2023-05-19T01:37:12.537Z,6.89
2023-05-19T01:38:12.600Z,6.86
2023-05-19T01:39:12.518Z,6.83
2023-05-19T01:40:12.527Z,6.78
2023-05-19T01:41:12.508Z,6.73
2023-05-19T01:42:12.495Z,6.71
2023-05-19T01:43:12.496Z,6.64
2023-05-19T01:44:12.490Z,6.65
2023-05-19T01:45:12.478Z,6.64
2023-05-19T01:46:12.508Z,6.58
2023-05-19T01:47:12.438Z,6.58
2023-05-19T01:48:12.501Z,6.58
2023-05-19T01:49:13.558Z,6.60
2023-05-19T01:50:12.427Z,6.61
2023-05-19T01:51:12.434Z,6.63
2023-05-19T01:52:12.409Z,6.61
2023-05-19T01:53:12.392Z,6.65
2023-05-19T01:54:12.360Z,6.69
2023-05-19T01:55:12.382Z,6.69
2023-05-19T01:56:13.761Z,6.71
2023-05-19T01:57:12.366Z,6.69
2023-05-19T01:58:12.336Z,6.69
2023-05-19T01:59:12.328Z,6.69
2023-05-19T02:00:12.313Z,6.65
2023-05-19T02:01:12.355Z,6.65
2023-05-19T02:02:12.285Z,6.63
2023-05-19T02:03:12.290Z,6.60
2023-05-19T02:04:12.324Z,6.57
2023-05-19T02:05:12.260Z,6.54
2023-05-19T02:06:12.275Z,6.50
2023-05-19T02:07:12.248Z,6.45
2023-05-19T02:08:12.248Z,6.42
2023-05-19T02:09:12.248Z,6.36
2023-05-19T02:10:12.236Z,6.32
2023-05-19T02:11:12.215Z,6.28
2023-05-19T02:12:12.192Z,6.25
2023-05-19T02:13:12.179Z,6.27
2023-05-19T02:14:12.154Z,6.24
2023-05-19T02:15:12.158Z,6.20
2023-05-19T02:16:12.177Z,6.21
2023-05-19T02:17:12.148Z,6.25
2023-05-19T02:18:12.127Z,6.27
2023-05-19T02:19:12.149Z,6.30
2023-05-19T02:20:12.097Z,6.27
2023-05-19T02:21:12.112Z,6.35
2023-05-19T02:22:12.067Z,6.36
2023-05-19T02:23:12.076Z,6.38
2023-05-19T02:24:12.049Z,6.40
2023-05-19T02:25:12.004Z,6.42
2023-05-19T02:26:12.063Z,6.40
2023-05-19T02:27:12.070Z,6.42
2023-05-19T02:28:11.966Z,6.43
2023-05-19T02:29:11.967Z,6.42
2023-05-19T02:30:11.940Z,6.42
2023-05-19T02:31:11.932Z,6.40
2023-05-19T02:32:11.983Z,6.40
2023-05-19T02:33:12.025Z,6.39
2023-05-19T02:34:11.905Z,6.39
2023-05-19T02:35:11.909Z,6.38
2023-05-19T02:36:11.876Z,6.36
2023-05-19T02:37:11.894Z,6.38
2023-05-19T02:38:11.850Z,6.36
2023-05-19T02:39:11.847Z,6.39
2023-05-19T02:40:11.854Z,6.43
2023-05-19T02:41:12.361Z,6.42
2023-05-19T02:42:11.832Z,6.45
2023-05-19T02:43:11.807Z,6.42
2023-05-19T02:44:11.780Z,6.43
2023-05-19T02:45:11.793Z,6.48
2023-05-19T02:46:11.821Z,6.48
2023-05-19T02:47:11.790Z,6.51
2023-05-19T02:48:11.773Z,6.50
2023-05-19T02:49:11.754Z,6.50
2023-05-19T02:50:11.730Z,6.53
2023-05-19T02:51:11.759Z,6.55
2023-05-19T02:52:11.700Z,6.63
2023-05-19T02:53:11.720Z,6.71
2023-05-19T02:54:11.702Z,6.79
2023-05-19T02:55:11.686Z,6.79
2023-05-19T02:56:11.708Z,6.83
2023-05-19T02:57:11.677Z,6.87
2023-05-19T02:58:11.647Z,6.90
2023-05-19T02:59:11.691Z,6.91
2023-05-19T03:00:11.625Z,6.96
2023-05-19T03:01:11.624Z,6.99
2023-05-19T03:02:11.794Z,7.04
2023-05-19T03:03:11.625Z,7.05
2023-05-19T03:04:11.587Z,7.05
2023-05-19T03:05:11.612Z,7.08
2023-05-19T03:06:11.552Z,7.12
2023-05-19T03:07:11.565Z,7.14
2023-05-19T03:08:11.546Z,7.18
2023-05-19T03:09:11.543Z,7.24
2023-05-19T03:10:11.544Z,7.27
2023-05-19T03:11:11.520Z,7.27
2023-05-19T03:12:11.528Z,7.32
2023-05-19T03:13:11.496Z,7.29
2023-05-19T03:14:11.472Z,7.30
2023-05-19T03:15:11.492Z,7.29
2023-05-19T03:16:11.491Z,7.30
2023-05-19T03:17:11.486Z,7.29
2023-05-19T03:18:11.467Z,7.27
2023-05-19T03:19:11.473Z,7.29
2023-05-19T03:20:11.428Z,7.30
2023-05-19T03:21:11.425Z,7.26
2023-05-19T03:22:11.514Z,7.23
2023-05-19T03:23:11.395Z,7.23
2023-05-19T03:24:11.372Z,7.21
2023-05-19T03:25:11.375Z,7.24
2023-05-19T03:26:11.351Z,7.19
2023-05-19T03:27:11.375Z,7.16
2023-05-19T03:28:11.325Z,7.15
2023-05-19T03:29:11.358Z,7.15
2023-05-19T03:30:11.318Z,7.11
2023-05-19T03:31:11.325Z,7.12
2023-05-19T03:32:11.306Z,7.12
2023-05-19T03:33:11.483Z,7.11
2023-05-19T03:34:11.299Z,7.14
2023-05-19T03:35:11.268Z,7.14
2023-05-19T03:36:11.245Z,7.16
2023-05-19T03:37:11.275Z,7.16
2023-05-19T03:38:11.234Z,7.15
2023-05-19T03:39:11.286Z,7.18
2023-05-19T03:40:11.217Z,7.16
2023-05-19T03:41:11.206Z,7.21
2023-05-19T03:42:11.183Z,7.21
2023-05-19T03:43:11.181Z,7.24
2023-05-19T03:44:11.191Z,7.24
2023-05-19T03:45:11.165Z,7.27
2023-05-19T03:46:11.221Z,7.27
2023-05-19T03:47:11.173Z,7.24
2023-05-19T03:48:11.211Z,7.24
2023-05-19T03:49:11.171Z,7.24
2023-05-19T03:50:11.130Z,7.24
2023-05-19T03:51:11.112Z,7.27
2023-05-19T03:52:11.086Z,7.30
2023-05-19T03:53:11.083Z,7.24
2023-05-19T03:54:11.063Z,7.26
2023-05-19T03:55:11.078Z,7.27
2023-05-19T03:56:11.055Z,7.32
2023-05-19T03:57:11.042Z,7.33
2023-05-19T03:58:11.025Z,7.37
2023-05-19T03:59:11.049Z,7.41
2023-05-19T04:00:11.000Z,7.48
2023-05-19T04:01:12.054Z,7.50
2023-05-19T04:02:11.015Z,7.52
2023-05-19T04:03:11.148Z,7.51
2023-05-19T04:04:11.021Z,7.52
2023-05-19T04:05:10.959Z,7.51
2023-05-19T04:06:10.936Z,7.51
2023-05-19T04:07:10.935Z,7.52
2023-05-19T04:08:10.933Z,7.52
2023-05-19T04:09:10.947Z,7.55
2023-05-19T04:10:10.911Z,7.62
2023-05-19T04:11:10.892Z,7.66
2023-05-19T04:12:10.886Z,7.71
2023-05-19T04:13:10.870Z,7.76
2023-05-19T04:14:11.385Z,7.77
2023-05-19T04:15:10.868Z,7.81
2023-05-19T04:16:10.863Z,7.82
2023-05-19T04:17:10.837Z,7.88
2023-05-19T04:18:10.845Z,7.91
2023-05-19T04:19:10.855Z,7.95
2023-05-19T04:20:10.786Z,8.02
2023-05-19T04:21:10.807Z,8.03
2023-05-19T04:22:10.771Z,8.04
2023-05-19T04:23:10.766Z,8.12
2023-05-19T04:24:10.776Z,8.18
2023-05-19T04:25:10.745Z,8.20
2023-05-19T04:26:10.775Z,8.25
2023-05-19T04:27:10.733Z,8.28
2023-05-19T04:28:10.761Z,8.36
2023-05-19T04:29:10.733Z,8.39
2023-05-19T04:30:10.699Z,8.42
2023-05-19T04:31:10.770Z,8.45
2023-05-19T04:32:10.683Z,8.50
2023-05-19T04:33:10.712Z,8.55
2023-05-19T04:34:10.672Z,8.61
2023-05-19T04:35:10.634Z,8.64
2023-05-19T04:36:10.716Z,8.68
2023-05-19T04:37:10.631Z,8.73
2023-05-19T04:38:10.619Z,8.78
2023-05-19T04:39:10.597Z,8.79
2023-05-19T04:40:10.629Z,8.83
2023-05-19T04:41:10.596Z,8.88
2023-05-19T04:42:10.566Z,8.94
2023-05-19T04:43:10.605Z,8.98
2023-05-19T04:44:11.262Z,9.03
2023-05-19T04:45:10.556Z,9.06
2023-05-19T04:46:13.184Z,9.12
2023-05-19T04:47:10.541Z,9.17
2023-05-19T04:48:10.544Z,9.24
2023-05-19T04:49:10.499Z,9.30
2023-05-19T04:50:10.500Z,9.31
2023-05-19T04:51:10.484Z,9.32
2023-05-19T04:52:12.075Z,9.38
2023-05-19T04:53:10.486Z,9.37
2023-05-19T04:54:10.439Z,9.42
2023-05-19T04:55:12.099Z,9.45
2023-05-19T04:56:11.107Z,9.52
2023-05-19T04:57:13.893Z,9.56
2023-05-19T04:58:11.034Z,9.58
2023-05-19T04:59:10.386Z,9.56
2023-05-19T05:00:11.002Z,9.58
2023-05-19T05:01:10.375Z,9.62
2023-05-19T05:02:10.578Z,9.70
2023-05-19T05:03:11.720Z,9.71
2023-05-19T05:04:10.453Z,9.77
2023-05-19T05:05:10.336Z,9.81
2023-05-19T05:06:10.627Z,9.85
2023-05-19T05:07:10.304Z,9.93
2023-05-19T05:08:10.318Z,10.01
2023-05-19T05:09:10.281Z,10.06
2023-05-19T05:10:10.262Z,10.07
2023-05-19T05:11:10.273Z,10.11
2023-05-19T05:12:10.247Z,10.16
2023-05-19T05:13:11.864Z,10.22
2023-05-19T05:14:10.226Z,10.32
2023-05-19T05:15:10.223Z,10.35
2023-05-19T05:16:10.231Z,10.35
2023-05-19T05:17:10.257Z,10.35
2023-05-19T05:18:10.325Z,10.44
2023-05-19T05:19:10.234Z,10.52
2023-05-19T05:20:10.158Z,10.65
2023-05-19T05:21:10.164Z,10.72
2023-05-19T05:22:10.166Z,10.81
2023-05-19T05:23:10.160Z,10.84
2023-05-19T05:24:10.124Z,10.90
2023-05-19T05:25:10.115Z,10.98
2023-05-19T05:26:10.089Z,11.06
2023-05-19T05:27:10.262Z,11.03
2023-05-19T05:28:10.111Z,11.13
2023-05-19T05:29:10.062Z,11.21
2023-05-19T05:30:10.526Z,11.28
2023-05-19T05:31:10.050Z,11.33
2023-05-19T05:32:10.116Z,11.33
2023-05-19T05:33:10.215Z,11.41
2023-05-19T05:34:10.637Z,11.49
2023-05-19T05:35:10.008Z,11.56
2023-05-19T05:36:09.997Z,11.62
2023-05-19T05:37:10.148Z,11.62
2023-05-19T05:38:09.969Z,11.74
2023-05-19T05:39:09.966Z,11.82
2023-05-19T05:40:09.948Z,11.81
2023-05-19T05:41:10.222Z,11.74
2023-05-19T05:42:09.960Z,11.79
2023-05-19T05:43:09.919Z,11.70
2023-05-19T05:44:09.899Z,11.62
2023-05-19T05:45:09.923Z,11.64
2023-05-19T05:46:10.233Z,11.54
2023-05-19T05:47:10.004Z,11.57
2023-05-19T05:48:09.893Z,11.60
2023-05-19T05:49:09.888Z,11.53
2023-05-19T05:50:09.870Z,11.51
2023-05-19T05:51:09.849Z,11.45
2023-05-19T05:52:09.819Z,11.45
2023-05-19T05:53:09.814Z,11.44
2023-05-19T05:54:09.790Z,11.46
2023-05-19T05:55:09.834Z,11.46
2023-05-19T05:56:09.772Z,11.46
2023-05-19T05:57:09.800Z,11.48
2023-05-19T05:58:09.772Z,11.49
2023-05-19T05:59:09.805Z,11.67
2023-05-19T06:00:09.787Z,12.11
2023-05-19T06:01:09.746Z,12.04
2023-05-19T06:02:09.787Z,11.94
2023-05-19T06:03:10.041Z,11.85
2023-05-19T06:04:09.707Z,11.82
2023-05-19T06:05:09.754Z,11.93
2023-05-19T06:06:09.678Z,12.22
2023-05-19T06:07:09.694Z,12.43
2023-05-19T06:08:09.654Z,12.62
2023-05-19T06:09:09.650Z,13.13
2023-05-19T06:10:09.649Z,13.25
2023-05-19T06:11:09.649Z,13.63
2023-05-19T06:12:09.633Z,13.71
2023-05-19T06:13:09.616Z,13.65
2023-05-19T06:14:09.598Z,13.38
2023-05-19T06:15:09.579Z,13.24
2023-05-19T06:16:09.669Z,13.14
2023-05-19T06:17:09.560Z,13.03
2023-05-19T06:18:09.603Z,13.63
2023-05-19T06:19:09.559Z,13.66
2023-05-19T06:20:09.539Z,14.04
2023-05-19T06:21:09.761Z,14.08
2023-05-19T06:22:09.507Z,13.87
2023-05-19T06:23:09.508Z,13.79
2023-05-19T06:24:09.487Z,13.71
2023-05-19T06:25:09.475Z,13.98
2023-05-19T06:26:10.886Z,13.96
2023-05-19T06:27:09.456Z,14.79
2023-05-19T06:28:09.450Z,15.05
2023-05-19T06:29:09.439Z,15.33
2023-05-19T06:30:09.450Z,16.37
2023-05-19T06:31:09.509Z,17.03
2023-05-19T06:32:09.440Z,17.65
2023-05-19T06:33:09.417Z,18.05
2023-05-19T06:34:09.387Z,17.77
2023-05-19T06:35:09.366Z,17.62
2023-05-19T06:36:09.406Z,18.36
2023-05-19T06:37:09.342Z,18.65
2023-05-19T06:38:09.360Z,18.14
2023-05-19T06:39:09.403Z,17.27
2023-05-19T06:40:09.960Z,17.28
2023-05-19T06:41:09.334Z,18.01
2023-05-19T06:42:09.310Z,18.78
2023-05-19T06:43:09.316Z,19.39
2023-05-19T06:44:09.287Z,20.08
2023-05-19T06:45:09.254Z,20.61
2023-05-19T06:46:10.096Z,21.12
2023-05-19T06:47:09.327Z,20.82
2023-05-19T06:48:09.318Z,20.66
2023-05-19T06:49:10.436Z,18.84
2023-05-19T06:50:10.593Z,18.13
2023-05-19T06:51:09.220Z,17.96
2023-05-19T06:52:10.332Z,18.34
2023-05-19T06:53:12.419Z,18.89
2023-05-19T06:54:09.197Z,19.12
2023-05-19T06:55:10.713Z,19.23
2023-05-19T06:56:10.211Z,19.16
2023-05-19T06:57:09.125Z,19.06
2023-05-19T06:58:11.238Z,19.23
2023-05-19T06:59:09.138Z,19.58
2023-05-19T07:00:09.114Z,19.55
2023-05-19T07:01:10.725Z,19.75
2023-05-19T07:02:10.764Z,19.68
2023-05-19T07:03:09.179Z,20.04
2023-05-19T07:04:10.665Z,20.38
2023-05-19T07:05:09.051Z,20.25
2023-05-19T07:06:09.660Z,20.08
2023-05-19T07:07:09.737Z,20.23
2023-05-19T07:08:09.051Z,20.56
2023-05-19T07:09:10.550Z,20.57
2023-05-19T07:10:09.000Z,20.81
2023-05-19T07:11:08.986Z,20.85
2023-05-19T07:12:08.981Z,21.58
2023-05-19T07:13:08.998Z,22.17
2023-05-19T07:14:12.091Z,22.46
2023-05-19T07:15:09.561Z,22.82
2023-05-19T07:16:11.143Z,23.16
2023-05-19T07:17:08.950Z,23.47
2023-05-19T07:18:08.958Z,23.31
2023-05-19T07:19:08.954Z,23.21
2023-05-19T07:20:10.561Z,22.61
2023-05-19T07:21:09.569Z,23.04
2023-05-19T07:22:08.895Z,23.60
2023-05-19T07:23:08.877Z,23.54
2023-05-19T07:24:08.852Z,23.50
2023-05-19T07:25:08.841Z,23.92
2023-05-19T07:26:08.833Z,24.59
2023-05-19T07:27:09.459Z,25.07
2023-05-19T07:28:10.363Z,24.68
2023-05-19T07:29:10.090Z,24.00
2023-05-19T07:30:10.386Z,22.91
2023-05-19T07:31:08.792Z,23.22
2023-05-19T07:32:09.534Z,23.39
2023-05-19T07:33:10.440Z,23.54
2023-05-19T07:34:10.054Z,23.23
2023-05-19T07:35:08.730Z,23.00
2023-05-19T07:36:10.109Z,23.04
2023-05-19T07:37:08.730Z,23.16
2023-05-19T07:38:08.709Z,21.96
2023-05-19T07:39:10.397Z,22.46
2023-05-19T07:40:08.703Z,21.89
2023-05-19T07:41:10.273Z,21.96
2023-05-19T07:42:08.694Z,21.68
2023-05-19T07:43:08.641Z,21.45
2023-05-19T07:44:10.201Z,20.73
2023-05-19T07:45:08.608Z,20.94
2023-05-19T07:46:09.305Z,20.60
2023-05-19T07:47:09.509Z,20.64
2023-05-19T07:48:08.606Z,21.34
2023-05-19T07:49:10.103Z,22.35
2023-05-19T07:50:08.566Z,23.84
2023-05-19T07:51:08.570Z,24.99
2023-05-19T07:52:11.511Z,23.52
2023-05-19T07:53:08.550Z,23.21
2023-05-19T07:54:08.545Z,24.59
2023-05-19T07:55:08.516Z,25.19
2023-05-19T07:56:08.539Z,25.97
2023-05-19T07:57:08.498Z,25.44
2023-05-19T07:58:08.482Z,24.24
2023-05-19T07:59:08.491Z,23.93
2023-05-19T08:00:09.157Z,23.34
2023-05-19T08:01:09.158Z,22.78
2023-05-19T08:02:08.476Z,22.36
2023-05-19T08:03:09.269Z,22.33
2023-05-19T08:04:10.376Z,22.85
2023-05-19T08:05:09.095Z,22.72
2023-05-19T08:06:08.434Z,22.61
2023-05-19T08:07:10.020Z,22.63
2023-05-19T08:08:08.399Z,22.08
2023-05-19T08:09:08.995Z,22.79
2023-05-19T08:10:08.366Z,22.89
2023-05-19T08:11:08.564Z,22.30
2023-05-19T08:12:08.351Z,21.52
2023-05-19T08:13:08.345Z,21.43
2023-05-19T08:14:09.888Z,20.64
2023-05-19T08:15:08.306Z,20.41
2023-05-19T08:16:08.459Z,20.53
2023-05-19T08:17:08.309Z,21.16
2023-05-19T08:18:08.329Z,21.16
2023-05-19T08:19:08.355Z,21.38
2023-05-19T08:20:08.351Z,21.73
2023-05-19T08:21:08.252Z,22.27
2023-05-19T08:22:08.261Z,21.93
2023-05-19T08:23:08.230Z,21.59
2023-05-19T08:24:08.242Z,22.27
2023-05-19T08:25:08.229Z,22.49
2023-05-19T08:26:08.211Z,22.12
2023-05-19T08:27:08.241Z,21.59
2023-05-19T08:28:08.209Z,21.46
2023-05-19T08:29:08.185Z,21.77
2023-05-19T08:30:08.190Z,22.75
2023-05-19T08:31:08.328Z,23.71
2023-05-19T08:32:08.518Z,23.94
2023-05-19T08:33:08.206Z,23.53
2023-05-19T08:34:08.139Z,23.19
2023-05-19T08:35:08.111Z,22.36
2023-05-19T08:36:08.124Z,21.93
2023-05-19T08:37:08.136Z,21.45
2023-05-19T08:38:08.091Z,21.21
2023-05-19T08:39:08.068Z,21.12
2023-05-19T08:40:08.060Z,21.22
2023-05-19T08:41:08.050Z,21.59
2023-05-19T08:42:08.065Z,21.61
2023-05-19T08:43:08.025Z,22.78
2023-05-19T08:44:08.032Z,23.41
2023-05-19T08:45:08.006Z,24.04
2023-05-19T08:46:08.064Z,23.56
2023-05-19T08:47:08.174Z,23.23
2023-05-19T08:48:08.055Z,23.01
2023-05-19T08:49:07.953Z,23.67
2023-05-19T08:50:08.042Z,24.49
2023-05-19T08:51:07.927Z,25.85
2023-05-19T08:52:07.955Z,26.09
2023-05-19T08:53:12.758Z,25.57
2023-05-19T08:54:07.922Z,26.17
2023-05-19T08:55:07.921Z,25.48
2023-05-19T08:56:07.898Z,24.19
2023-05-19T08:57:07.907Z,22.60
2023-05-19T08:58:07.882Z,21.49
2023-05-19T08:59:07.839Z,21.93
2023-05-19T09:00:07.867Z,22.23
2023-05-19T09:01:07.871Z,22.04
2023-05-19T09:02:07.849Z,21.22
2023-05-19T09:04:07.984Z,20.33
2023-05-19T09:05:07.848Z,19.90
2023-05-19T09:06:08.112Z,19.68
2023-05-19T09:07:07.794Z,19.55
2023-05-19T09:08:07.787Z,19.70
2023-05-19T09:09:07.747Z,19.64
2023-05-19T09:10:07.756Z,19.82
2023-05-19T09:11:07.764Z,20.07
2023-05-19T09:12:07.756Z,20.73
2023-05-19T09:13:07.726Z,21.90
2023-05-19T09:14:08.345Z,22.15
2023-05-19T09:15:07.683Z,22.23
2023-05-19T09:16:07.737Z,21.66
2023-05-19T09:17:07.698Z,20.98
2023-05-19T09:18:07.689Z,20.88
2023-05-19T09:19:07.712Z,20.93
2023-05-19T09:20:07.639Z,21.09
2023-05-19T09:21:07.710Z,21.19
2023-05-19T09:22:07.651Z,21.24
2023-05-19T09:23:07.602Z,20.94
2023-05-19T09:24:07.596Z,20.82
2023-05-19T09:25:07.610Z,20.73
2023-05-19T09:26:08.210Z,22.11
2023-05-19T09:27:07.799Z,23.18
2023-05-19T09:28:07.546Z,23.97
2023-05-19T09:29:07.533Z,24.49
2023-05-19T09:30:08.178Z,24.46
2023-05-19T09:31:18.577Z,24.71
2023-05-19T09:32:08.210Z,23.79
2023-05-19T09:33:07.535Z,23.44
2023-05-19T09:34:08.138Z,24.49
2023-05-19T09:35:09.093Z,25.04
2023-05-19T09:36:07.479Z,25.48
2023-05-19T09:37:07.450Z,26.09
2023-05-19T09:38:07.481Z,25.78
2023-05-19T09:39:07.435Z,25.96
2023-05-19T09:40:07.430Z,26.47
2023-05-19T09:41:09.057Z,26.47
2023-05-19T09:42:07.608Z,26.64
2023-05-19T09:43:07.404Z,27.39
2023-05-19T09:44:07.411Z,27.78
2023-05-19T09:45:07.370Z,26.75
2023-05-19T09:46:07.564Z,25.82
2023-05-19T09:47:09.000Z,23.71
2023-05-19T09:48:08.116Z,23.90
2023-05-19T09:49:07.333Z,24.82
2023-05-19T09:50:08.882Z,25.01
2023-05-19T09:51:08.350Z,25.27
2023-05-19T09:52:07.935Z,25.11
2023-05-19T09:53:07.292Z,24.44
2023-05-19T09:54:07.311Z,24.02
2023-05-19T09:55:07.287Z,23.74
2023-05-19T09:56:07.270Z,24.34
2023-05-19T09:57:09.345Z,25.35
2023-05-19T09:58:07.243Z,25.85
2023-05-19T09:59:07.375Z,25.94
2023-05-19T10:00:07.237Z,25.85
2023-05-19T10:01:07.243Z,24.60
2023-05-19T10:02:07.231Z,23.23
2023-05-19T10:03:07.227Z,22.72
2023-05-19T10:04:07.520Z,22.57
2023-05-19T10:05:07.232Z,22.29
2023-05-19T10:06:07.171Z,22.08
2023-05-19T10:07:07.160Z,21.68
2023-05-19T10:08:07.159Z,21.58
2023-05-19T10:09:07.115Z,20.91
2023-05-19T10:10:07.150Z,21.86
2023-05-19T10:11:07.151Z,20.93
2023-05-19T10:12:07.138Z,20.66
2023-05-19T10:13:07.167Z,20.57
2023-05-19T10:14:07.126Z,20.48
2023-05-19T10:15:07.167Z,20.64
2023-05-19T10:16:07.085Z,20.73
2023-05-19T10:17:07.108Z,20.68
2023-05-19T10:18:09.319Z,20.98
2023-05-19T10:19:07.063Z,20.94
2023-05-19T10:20:07.056Z,20.64
2023-05-19T10:21:07.006Z,20.34
2023-05-19T10:22:06.989Z,20.20
2023-05-19T10:23:06.986Z,20.35
2023-05-19T10:24:06.970Z,20.37
2023-05-19T10:25:06.989Z,20.56
2023-05-19T10:26:06.965Z,20.57
2023-05-19T10:27:06.954Z,20.51
2023-05-19T10:28:06.930Z,20.41
2023-05-19T10:29:06.926Z,20.20
2023-05-19T10:30:08.279Z,20.16
2023-05-19T10:31:07.145Z,20.35
2023-05-19T10:32:06.932Z,20.54
2023-05-19T10:33:06.922Z,20.46
2023-05-19T10:34:06.865Z,20.37
2023-05-19T10:35:06.887Z,20.35
2023-05-19T10:36:06.844Z,20.27
2023-05-19T10:37:06.844Z,20.10
2023-05-19T10:38:06.820Z,19.79
2023-05-19T10:39:06.825Z,19.52
2023-05-19T10:40:07.967Z,19.57
2023-05-19T10:41:06.824Z,19.97
2023-05-19T10:42:06.784Z,21.15
2023-05-19T10:43:06.771Z,22.19
2023-05-19T10:44:07.312Z,22.61
2023-05-19T10:45:06.751Z,22.35
2023-05-19T10:46:06.754Z,21.75
2023-05-19T10:47:06.760Z,21.82
2023-05-19T10:48:06.813Z,22.30
2023-05-19T10:49:06.713Z,21.67
2023-05-19T10:50:08.016Z,21.38
2023-05-19T10:51:06.705Z,20.90
2023-05-19T10:52:06.673Z,21.09
2023-05-19T10:53:06.687Z,20.83
2023-05-19T10:54:06.676Z,20.44
2023-05-19T10:55:06.646Z,20.44
2023-05-19T10:56:06.648Z,20.33
2023-05-19T10:57:06.630Z,20.27
2023-05-19T10:58:06.632Z,20.35
2023-05-19T10:59:06.634Z,21.24
2023-05-19T11:00:06.585Z,20.91
2023-05-19T11:01:06.598Z,20.66
2023-05-19T11:02:06.638Z,20.58
2023-05-19T11:03:06.671Z,20.50
2023-05-19T11:04:06.682Z,20.15
2023-05-19T11:05:06.547Z,20.41
2023-05-19T11:06:06.526Z,21.22
2023-05-19T11:07:06.523Z,22.79
2023-05-19T11:08:06.696Z,23.63
2023-05-19T11:09:06.528Z,22.42
2023-05-19T11:10:06.488Z,22.01
2023-05-19T11:11:06.499Z,21.86
2023-05-19T11:12:06.474Z,21.96
2023-05-19T11:13:06.924Z,22.17
2023-05-19T11:14:06.480Z,21.75
2023-05-19T11:15:06.453Z,21.66
2023-05-19T11:16:06.468Z,21.28
2023-05-19T11:17:06.497Z,21.18
2023-05-19T11:18:06.482Z,21.21
2023-05-19T11:19:06.519Z,21.13
2023-05-19T11:20:06.389Z,20.88
2023-05-19T11:21:06.415Z,20.90
2023-05-19T11:22:06.368Z,20.78
2023-05-19T11:23:06.399Z,20.37
2023-05-19T11:24:06.433Z,20.19
2023-05-19T11:25:06.346Z,20.25
2023-05-19T11:26:06.326Z,20.22
2023-05-19T11:27:06.327Z,20.08
2023-05-19T11:28:06.307Z,20.37
2023-05-19T11:29:06.331Z,20.50
2023-05-19T11:30:06.280Z,20.51
2023-05-19T11:31:06.314Z,20.38
2023-05-19T11:32:06.305Z,20.38
2023-05-19T11:33:06.321Z,20.22
2023-05-19T11:34:06.253Z,20.10
2023-05-19T11:35:06.247Z,20.12
2023-05-19T11:36:06.246Z,20.08
2023-05-19T11:37:06.243Z,20.00
2023-05-19T11:38:06.210Z,20.05
2023-05-19T11:39:06.225Z,20.15
2023-05-19T11:40:06.209Z,20.22
2023-05-19T11:41:06.220Z,20.20
2023-05-19T11:42:06.169Z,20.01
2023-05-19T11:43:06.163Z,19.97
2023-05-19T11:44:06.165Z,20.00
2023-05-19T11:45:06.141Z,20.05
2023-05-19T11:46:06.190Z,20.78
2023-05-19T11:47:06.264Z,21.59
2023-05-19T11:48:06.117Z,22.01
2023-05-19T11:49:06.120Z,22.17
2023-05-19T11:50:06.079Z,21.98
2023-05-19T11:51:06.099Z,21.63
2023-05-19T11:52:06.055Z,21.37
2023-05-19T11:53:06.068Z,21.31
2023-05-19T11:54:06.064Z,21.26
2023-05-19T11:55:06.031Z,21.51
2023-05-19T11:56:06.056Z,21.49
2023-05-19T11:57:06.010Z,21.16
2023-05-19T11:58:06.226Z,21.19
2023-05-19T11:59:06.024Z,21.43
2023-05-19T12:00:05.970Z,21.63
2023-05-19T12:01:05.974Z,21.96
2023-05-19T12:02:05.948Z,21.81
2023-05-19T12:03:06.238Z,21.70
2023-05-19T12:04:05.969Z,21.59
2023-05-19T12:05:06.005Z,21.45
2023-05-19T12:06:05.993Z,21.68
2023-05-19T12:07:05.907Z,21.55
2023-05-19T12:08:05.888Z,21.52
2023-05-19T12:09:05.905Z,20.98
2023-05-19T12:10:05.866Z,21.05
2023-05-19T12:11:05.865Z,21.09
2023-05-19T12:12:05.876Z,21.15
2023-05-19T12:13:05.857Z,21.15
2023-05-19T12:14:05.833Z,21.28
2023-05-19T12:15:05.828Z,21.56
2023-05-19T12:16:05.906Z,21.24
2023-05-19T12:17:05.834Z,21.16
2023-05-19T12:18:05.864Z,20.98
2023-05-19T12:19:05.798Z,21.18
2023-05-19T12:20:05.796Z,21.12
2023-05-19T12:21:05.770Z,21.01
2023-05-19T12:22:05.769Z,20.94
2023-05-19T12:23:05.791Z,20.88
2023-05-19T12:24:05.730Z,21.08
2023-05-19T12:25:06.159Z,21.22
2023-05-19T12:26:05.697Z,21.19
2023-05-19T12:27:05.701Z,21.42
2023-05-19T12:28:05.724Z,21.79
2023-05-19T12:29:05.671Z,21.94
2023-05-19T12:30:05.676Z,22.19
2023-05-19T12:31:05.659Z,22.59
2023-05-19T12:32:05.674Z,23.32
2023-05-19T12:33:05.710Z,24.04
2023-05-19T12:34:05.611Z,24.48
2023-05-19T12:35:05.612Z,24.53
2023-05-19T12:36:05.595Z,25.01
2023-05-19T12:37:05.602Z,24.64
2023-05-19T12:38:05.661Z,24.06
2023-05-19T12:39:05.564Z,23.64
2023-05-19T12:40:05.551Z,23.49
2023-05-19T12:41:05.569Z,23.42
2023-05-19T12:42:05.549Z,23.44
2023-05-19T12:43:05.712Z,23.11
2023-05-19T12:44:05.497Z,22.76
2023-05-19T12:45:05.529Z,22.69
2023-05-19T12:46:05.505Z,23.22
2023-05-19T12:47:05.519Z,23.96
2023-05-19T12:48:05.674Z,24.68
2023-05-19T12:49:05.471Z,25.42
2023-05-19T12:50:05.443Z,25.54
2023-05-19T12:51:05.442Z,25.27
2023-05-19T12:52:10.547Z,25.26
2023-05-19T12:53:05.434Z,24.89
2023-05-19T12:54:05.785Z,24.84
2023-05-19T12:55:05.572Z,24.14
2023-05-19T12:56:05.429Z,24.21
2023-05-19T12:57:05.384Z,23.74
2023-05-19T12:58:05.383Z,23.04
2023-05-19T12:59:05.362Z,22.38
2023-05-19T13:00:05.364Z,23.12
2023-05-19T13:01:05.404Z,23.90
2023-05-19T13:02:05.484Z,24.99
2023-05-19T13:03:05.796Z,25.86